Time;durP1;ratioP1;P1;durP2;ratioP2;P2;SDS_P1;SDS_P2;PMS_P1;PMS_P2;Temp;Humidity;BMP_temperature;BMP_pressure;BME280_temperature;BME280_humidity;BME280_pressure;Samples;Min_cycle;Max_cycle;Signal;HPM_P1;HPM_P2
2022/09/10 00:00:54;;;;;;;11.77;3.25;;;17.10;99.90;;;;;;5014194;28;20026;-85
2022/09/10 00:03:21;;;;;;;12.32;3.15;;;17.10;99.90;;;;;;5013078;28;20029;-85
2022/09/10 00:05:46;;;;;;;7.93;2.70;;;17.00;99.90;;;;;;4996807;28;20029;-85
2022/09/10 00:08:12;;;;;;;7.07;3.50;;;17.00;99.90;;;;;;5012803;28;20033;-85
2022/09/10 00:10:46;;;;;;;6.22;2.58;;;17.10;99.90;;;;;;5014618;28;20026;-85
2022/09/10 00:13:14;;;;;;;9.38;2.70;;;17.10;99.90;;;;;;5012708;28;20046;-85
2022/09/10 00:15:46;;;;;;;8.75;2.90;;;17.00;99.90;;;;;;5014090;28;20018;-85
2022/09/10 00:18:14;;;;;;;9.93;3.75;;;17.00;99.90;;;;;;5012834;28;20092;-85
2022/09/10 00:20:46;;;;;;;9.52;3.28;;;17.00;99.90;;;;;;5012734;28;20022;-85
2022/09/10 00:23:14;;;;;;;12.43;4.32;;;17.00;99.90;;;;;;5012758;28;20014;-85
2022/09/10 00:25:41;;;;;;;9.63;3.50;;;17.00;99.90;;;;;;4996722;28;20065;-86
2022/09/10 00:28:07;;;;;;;11.20;4.35;;;17.10;99.90;;;;;;4996607;28;20442;-84
2022/09/10 00:30:33;;;;;;;9.85;4.68;;;17.00;99.90;;;;;;4996370;28;20360;-85
2022/09/10 00:32:59;;;;;;;8.55;4.78;;;17.00;99.90;;;;;;4980153;28;20022;-85
2022/09/10 00:35:25;;;;;;;9.02;4.28;;;17.00;99.90;;;;;;4980220;28;20506;-86
2022/09/10 00:37:50;;;;;;;12.13;5.88;;;17.00;99.90;;;;;;4979224;28;20125;-85
2022/09/10 00:40:16;;;;;;;11.70;5.05;;;17.00;99.90;;;;;;4979966;28;20022;-85
2022/09/10 00:42:42;;;;;;;15.35;6.65;;;17.00;99.90;;;;;;4979972;28;20033;-85
2022/09/10 00:45:20;;;;;;;10.35;5.45;;;17.00;99.90;;;;;;5012404;28;20498;-85
2022/09/10 00:47:49;;;;;;;10.02;5.60;;;17.00;99.90;;;;;;4996340;28;20033;-85
2022/09/10 00:50:50;;;;;;;10.10;5.90;;;17.00;99.90;;;;;;5012340;28;20407;-86
2022/09/10 00:53:22;;;;;;;13.10;6.68;;;17.00;99.90;;;;;;4880724;29;20039;-85
2022/09/10 00:55:51;;;;;;;11.85;7.00;;;16.90;99.90;;;;;;4994667;28;20041;-87
2022/09/10 00:58:19;;;;;;;13.60;6.82;;;17.00;99.90;;;;;;4996145;28;20034;-86
2022/09/10 01:00:45;;;;;;;10.95;7.85;;;17.00;99.90;;;;;;4997809;28;20026;-86
2022/09/10 01:03:14;;;;;;;15.38;8.32;;;17.00;99.90;;;;;;4980009;28;20042;-87
2022/09/10 01:05:43;;;;;;;18.05;7.78;;;17.00;99.90;;;;;;5013796;28;20021;-86
2022/09/10 01:08:16;;;;;;;15.00;8.40;;;17.00;99.90;;;;;;5013598;28;20046;-86
2022/09/10 01:10:57;;;;;;;14.23;8.20;;;17.00;99.90;;;;;;4980384;28;20037;-86
2022/09/10 01:13:36;;;;;;;16.23;7.93;;;17.00;99.90;;;;;;5013516;28;20038;-87
2022/09/10 01:16:27;;;;;;;12.98;8.85;;;17.00;99.90;;;;;;4996372;28;20065;-87
2022/09/10 01:19:23;;;;;;;14.05;8.40;;;17.00;99.90;;;;;;5013581;28;20040;-87
2022/09/10 01:22:04;;;;;;;12.88;7.90;;;17.00;99.90;;;;;;4995853;28;20033;-86
2022/09/10 01:24:58;;;;;;;12.98;8.75;;;17.00;99.90;;;;;;4996104;28;20088;-86
2022/09/10 01:27:38;;;;;;;17.27;8.80;;;17.00;99.90;;;;;;4996038;28;20374;-86
2022/09/10 01:30:16;;;;;;;13.32;9.25;;;17.00;99.90;;;;;;4995990;28;20056;-87
2022/09/10 01:32:45;;;;;;;15.95;9.32;;;17.00;99.90;;;;;;5012452;28;20026;-86
2022/09/10 01:35:22;;;;;;;16.80;9.52;;;17.00;99.90;;;;;;5013399;28;20029;-86
2022/09/10 01:37:53;;;;;;;17.42;10.82;;;17.00;99.90;;;;;;5013474;28;20109;-86
2022/09/10 01:40:27;;;;;;;17.55;10.95;;;17.00;99.90;;;;;;5012165;28;20021;-86
2022/09/10 01:42:53;;;;;;;14.73;10.52;;;17.00;99.90;;;;;;5013855;28;20506;-86
2022/09/10 01:45:18;;;;;;;13.93;9.85;;;17.00;99.90;;;;;;5012008;28;20029;-86
2022/09/10 01:47:59;;;;;;;16.98;10.02;;;17.00;99.90;;;;;;4995608;28;20030;-86
2022/09/10 01:50:42;;;;;;;15.50;10.00;;;17.00;99.90;;;;;;4997952;28;20049;-86
2022/09/10 01:53:27;;;;;;;13.40;10.05;;;17.00;99.90;;;;;;5015463;28;20022;-87
2022/09/10 01:56:02;;;;;;;15.95;10.10;;;17.00;99.90;;;;;;4999071;28;20076;-87
2022/09/10 01:58:42;;;;;;;16.33;9.68;;;17.00;99.90;;;;;;4999065;28;20022;-87
2022/09/10 02:01:30;;;;;;;19.17;12.00;;;17.00;99.90;;;;;;4999171;28;20468;-87
2022/09/10 02:04:02;;;;;;;17.08;9.55;;;17.00;99.90;;;;;;5016557;28;20257;-87
2022/09/10 02:06:31;;;;;;;16.05;9.88;;;17.00;99.90;;;;;;5015705;28;20049;-86
2022/09/10 02:08:59;;;;;;;16.10;10.23;;;17.00;99.90;;;;;;4998918;28;20387;-87
2022/09/10 02:11:25;;;;;;;15.82;8.98;;;17.00;99.90;;;;;;4982798;28;20025;-86
2022/09/10 02:13:52;;;;;;;15.48;9.75;;;17.00;99.90;;;;;;4998563;28;20057;-86
2022/09/10 02:16:24;;;;;;;14.48;8.95;;;17.00;99.90;;;;;;4982603;28;20030;-87
2022/09/10 02:18:49;;;;;;;16.52;10.48;;;17.00;99.90;;;;;;5016304;28;20026;-86
2022/09/10 02:21:15;;;;;;;13.55;10.00;;;17.00;99.90;;;;;;5016748;28;20116;-86
2022/09/10 02:23:45;;;;;;;15.30;10.88;;;17.00;99.90;;;;;;5014989;28;20116;-86
2022/09/10 02:26:13;;;;;;;18.55;11.85;;;17.00;99.90;;;;;;5015279;28;20460;-85
2022/09/10 02:28:39;;;;;;;17.55;10.20;;;17.00;99.90;;;;;;4983411;28;20022;-86
2022/09/10 02:31:05;;;;;;;16.92;10.75;;;17.00;99.90;;;;;;4998485;28;20425;-86
2022/09/10 02:33:31;;;;;;;18.83;10.45;;;17.00;99.90;;;;;;4998672;28;20018;-87
2022/09/10 02:35:57;;;;;;;14.05;10.63;;;17.00;99.90;;;;;;4998571;28;20442;-87
2022/09/10 02:38:23;;;;;;;14.98;10.52;;;17.00;99.90;;;;;;5016154;28;20029;-86
2022/09/10 02:40:49;;;;;;;18.42;10.88;;;17.00;99.90;;;;;;4998502;28;20034;-86
2022/09/10 02:43:16;;;;;;;15.82;10.20;;;17.00;99.90;;;;;;5017277;28;20388;-85
2022/09/10 02:45:42;;;;;;;14.35;10.00;;;17.00;99.90;;;;;;5015890;28;20133;-86
2022/09/10 02:48:07;;;;;;;17.25;10.25;;;17.00;99.90;;;;;;5016287;28;20026;-86
2022/09/10 02:50:34;;;;;;;17.30;10.10;;;17.00;99.90;;;;;;4998549;28;20510;-86
2022/09/10 02:53:00;;;;;;;17.98;10.52;;;17.00;99.90;;;;;;5016323;28;20029;-86
2022/09/10 02:55:26;;;;;;;15.18;10.00;;;17.00;99.90;;;;;;4982735;28;20023;-87
2022/09/10 02:57:52;;;;;;;14.82;10.20;;;17.00;99.90;;;;;;5016789;28;20037;-86
2022/09/10 03:00:19;;;;;;;13.75;10.23;;;17.00;99.90;;;;;;4998783;28;20026;-86
2022/09/10 03:02:46;;;;;;;18.95;11.13;;;17.00;99.90;;;;;;4998166;28;20038;-87
2022/09/10 03:05:13;;;;;;;13.65;10.50;;;17.00;99.90;;;;;;4999580;28;20101;-86
2022/09/10 03:07:39;;;;;;;15.57;11.00;;;17.00;99.90;;;;;;4984776;28;20026;-86
2022/09/10 03:10:05;;;;;;;16.38;11.63;;;17.00;99.90;;;;;;5017164;28;20471;-86
2022/09/10 03:12:31;;;;;;;14.77;10.48;;;17.00;99.90;;;;;;5016838;28;20078;-85
2022/09/10 03:14:57;;;;;;;18.23;11.65;;;17.00;99.90;;;;;;5017061;28;20053;-86
2022/09/10 03:17:24;;;;;;;15.18;11.50;;;17.00;99.90;;;;;;5000525;28;20104;-86
2022/09/10 03:19:50;;;;;;;17.25;12.18;;;17.00;99.90;;;;;;5018609;28;20546;-86
2022/09/10 03:22:16;;;;;;;17.38;12.30;;;17.00;99.90;;;;;;5000509;28;20467;-87
2022/09/10 03:24:42;;;;;;;16.52;12.18;;;17.00;99.90;;;;;;5019428;28;20045;-87
2022/09/10 03:27:08;;;;;;;12.55;10.82;;;17.00;99.90;;;;;;4986721;28;20499;-86
2022/09/10 03:29:35;;;;;;;14.77;10.75;;;17.00;99.90;;;;;;5019424;28;20101;-86
2022/09/10 03:32:01;;;;;;;13.63;11.80;;;17.00;99.90;;;;;;5037737;28;20038;-86
2022/09/10 03:34:27;;;;;;;17.90;11.23;;;17.00;99.90;;;;;;5037953;28;20085;-86
2022/09/10 03:36:53;;;;;;;17.23;11.88;;;17.00;99.90;;;;;;5037281;28;20022;-86
2022/09/10 03:39:19;;;;;;;16.52;11.73;;;17.00;99.90;;;;;;5037313;28;20040;-86
2022/09/10 03:41:45;;;;;;;17.95;11.43;;;17.00;99.90;;;;;;5035782;28;20026;-87
2022/09/10 03:44:11;;;;;;;22.15;10.88;;;17.00;99.90;;;;;;5031108;28;20033;-88
2022/09/10 03:46:37;;;;;;;15.52;10.68;;;17.00;99.90;;;;;;5021516;28;20045;-86
2022/09/10 03:49:07;;;;;;;15.27;11.93;;;17.00;99.90;;;;;;5018820;28;20052;-86
2022/09/10 03:51:33;;;;;;;18.60;12.32;;;17.00;99.90;;;;;;5020895;28;20042;-86
2022/09/10 03:53:59;;;;;;;14.52;11.07;;;17.00;99.90;;;;;;5016132;28;20034;-86
2022/09/10 03:56:25;;;;;;;16.48;12.35;;;17.00;99.90;;;;;;5016153;28;20037;-87
2022/09/10 03:58:51;;;;;;;16.48;12.05;;;17.00;99.90;;;;;;4999878;28;20467;-87
2022/09/10 04:01:18;;;;;;;16.10;11.13;;;17.00;99.90;;;;;;4998974;28;20030;-87
2022/09/10 04:03:44;;;;;;;14.93;11.48;;;17.00;99.90;;;;;;5015345;28;20018;-87
2022/09/10 04:06:10;;;;;;;17.15;11.45;;;17.00;99.90;;;;;;5013694;28;20499;-87
2022/09/10 04:08:36;;;;;;;14.25;11.15;;;17.00;99.90;;;;;;4997212;28;20037;-86
2022/09/10 04:11:03;;;;;;;16.63;11.00;;;17.00;99.90;;;;;;4980846;28;20030;-87
2022/09/10 04:13:30;;;;;;;15.77;12.57;;;17.00;99.90;;;;;;4996784;28;20129;-86
2022/09/10 04:15:56;;;;;;;15.18;10.85;;;17.00;99.90;;;;;;5012978;28;20021;-84
2022/09/10 04:18:22;;;;;;;14.43;11.30;;;17.00;99.90;;;;;;4981253;28;20387;-90
2022/09/10 04:20:48;;;;;;;14.65;10.93;;;17.00;99.90;;;;;;4997278;28;20025;-91
2022/09/10 04:23:15;;;;;;;16.10;11.68;;;17.00;99.90;;;;;;4997627;28;20040;-92
2022/09/10 04:25:41;;;;;;;15.95;10.98;;;17.00;99.90;;;;;;5014913;28;20026;-91
2022/09/10 04:28:06;;;;;;;15.90;11.20;;;17.00;99.90;;;;;;4996496;28;20391;-84
2022/09/10 04:30:32;;;;;;;13.93;10.48;;;17.00;99.90;;;;;;5012714;28;20022;-85
2022/09/10 04:32:58;;;;;;;17.02;11.38;;;17.00;99.90;;;;;;5012555;28;20026;-84
2022/09/10 04:35:25;;;;;;;13.75;10.68;;;17.00;99.90;;;;;;5012678;28;20092;-85
2022/09/10 04:37:51;;;;;;;15.63;11.18;;;17.00;99.90;;;;;;4980470;28;20022;-85
2022/09/10 04:40:16;;;;;;;16.20;11.30;;;16.90;99.90;;;;;;5009608;23;20033;-84
2022/09/10 04:42:42;;;;;;;14.63;11.15;;;16.90;99.90;;;;;;4980545;28;20030;-86
2022/09/10 04:45:08;;;;;;;18.48;12.55;;;16.90;99.90;;;;;;5013460;28;20089;-87
2022/09/10 04:47:34;;;;;;;19.17;12.57;;;17.00;99.90;;;;;;4980949;28;20033;-87
2022/09/10 04:50:00;;;;;;;15.98;12.20;;;17.00;99.90;;;;;;5013320;28;20018;-86
2022/09/10 04:52:26;;;;;;;16.30;10.60;;;16.90;99.90;;;;;;4980770;28;20427;-87
2022/09/10 04:54:52;;;;;;;16.05;10.60;;;17.00;99.90;;;;;;4964763;28;20026;-86
2022/09/10 04:57:17;;;;;;;16.98;11.00;;;17.00;99.90;;;;;;4996961;28;20372;-86
2022/09/10 04:59:43;;;;;;;15.75;10.93;;;17.00;99.90;;;;;;5013276;28;20022;-86
2022/09/10 05:02:09;;;;;;;12.55;10.38;;;17.00;99.90;;;;;;4996759;28;20057;-87
2022/09/10 05:04:35;;;;;;;17.45;11.10;;;17.00;99.90;;;;;;4996851;28;20491;-87
2022/09/10 05:07:00;;;;;;;15.48;11.48;;;17.00;99.90;;;;;;5012996;28;20025;-86
2022/09/10 05:09:30;;;;;;;14.63;10.98;;;17.00;99.90;;;;;;5013176;28;20037;-87
2022/09/10 05:11:59;;;;;;;17.55;11.25;;;17.00;99.90;;;;;;5014644;28;20026;-87
2022/09/10 05:14:26;;;;;;;14.90;10.85;;;17.00;99.90;;;;;;4996517;28;20061;-86
2022/09/10 05:16:51;;;;;;;14.68;10.07;;;17.00;99.90;;;;;;4996840;28;20100;-86
2022/09/10 05:19:17;;;;;;;15.82;10.70;;;17.00;99.90;;;;;;4980612;28;20022;-87
2022/09/10 05:21:43;;;;;;;18.25;10.85;;;17.00;99.90;;;;;;5013018;28;20430;-86
2022/09/10 05:24:10;;;;;;;15.35;11.35;;;17.00;99.90;;;;;;4980813;28;20061;-86
2022/09/10 05:26:35;;;;;;;16.35;10.38;;;17.00;99.90;;;;;;5017912;28;20053;-86
2022/09/10 05:29:01;;;;;;;13.40;9.73;;;17.10;99.90;;;;;;5000612;28;20054;-86
2022/09/10 05:31:27;;;;;;;15.07;11.35;;;17.00;99.90;;;;;;5016742;28;20444;-86
2022/09/10 05:33:54;;;;;;;16.40;11.88;;;17.10;99.90;;;;;;5016802;28;20022;-86
2022/09/10 05:36:20;;;;;;;15.45;11.63;;;17.00;99.90;;;;;;5000629;28;20169;-86
2022/09/10 05:38:46;;;;;;;14.70;10.50;;;17.10;99.90;;;;;;5000850;28;20045;-87
2022/09/10 05:41:12;;;;;;;15.38;10.90;;;17.00;99.90;;;;;;5000165;28;20484;-87
2022/09/10 05:43:39;;;;;;;12.20;10.82;;;17.00;99.90;;;;;;4984207;28;20049;-88
2022/09/10 05:46:04;;;;;;;15.48;11.55;;;17.10;99.90;;;;;;5000574;28;20019;-87
2022/09/10 05:48:30;;;;;;;16.50;12.15;;;17.10;99.90;;;;;;4967802;28;20037;-88
2022/09/10 05:50:56;;;;;;;18.33;12.43;;;17.10;99.90;;;;;;4984354;28;20056;-86
2022/09/10 05:53:22;;;;;;;17.85;12.20;;;17.10;99.90;;;;;;5016409;28;20041;-85
2022/09/10 05:55:48;;;;;;;18.35;11.50;;;17.10;99.90;;;;;;4968128;28;20042;-86
2022/09/10 05:58:15;;;;;;;16.63;12.07;;;17.10;99.90;;;;;;5003732;28;20026;-86
2022/09/10 06:00:42;;;;;;;17.92;12.57;;;17.10;99.90;;;;;;5032405;28;20033;-85
2022/09/10 06:03:09;;;;;;;19.05;12.23;;;17.10;99.90;;;;;;5016208;28;20105;-85
2022/09/10 06:05:35;;;;;;;21.20;13.40;;;17.10;99.90;;;;;;5005082;28;20030;-86
2022/09/10 06:08:01;;;;;;;17.10;11.90;;;17.10;99.90;;;;;;4980170;28;20081;-85
2022/09/10 06:10:26;;;;;;;23.48;12.35;;;17.10;99.90;;;;;;4980436;28;20109;-85
2022/09/10 06:12:52;;;;;;;16.25;11.48;;;17.00;99.90;;;;;;4964076;28;20030;-85
2022/09/10 06:15:20;;;;;;;18.48;12.77;;;17.00;99.90;;;;;;4980304;28;20556;-85
2022/09/10 06:17:46;;;;;;;17.33;11.57;;;17.00;99.90;;;;;;4996184;28;20069;-85
2022/09/10 06:20:11;;;;;;;17.27;12.18;;;17.00;99.90;;;;;;4979988;28;20022;-85
2022/09/10 06:22:38;;;;;;;14.75;11.07;;;17.00;99.90;;;;;;4979916;28;20033;-85
2022/09/10 06:25:05;;;;;;;15.80;10.70;;;16.90;99.90;;;;;;4980515;28;20058;-86
2022/09/10 06:27:31;;;;;;;15.32;11.23;;;16.90;99.90;;;;;;4997268;28;20019;-88
2022/09/10 06:29:56;;;;;;;16.23;10.90;;;16.90;99.90;;;;;;4965019;28;20029;-88
2022/09/10 06:32:22;;;;;;;19.08;13.45;;;16.80;99.90;;;;;;4979860;28;20026;-87
2022/09/10 06:34:48;;;;;;;20.45;15.10;;;16.80;99.90;;;;;;4980034;28;20066;-87
2022/09/10 06:37:13;;;;;;;22.58;14.23;;;16.70;99.90;;;;;;4979691;28;20026;-85
2022/09/10 06:39:39;;;;;;;19.27;13.73;;;16.70;99.90;;;;;;4979652;28;20026;-86
2022/09/10 06:42:06;;;;;;;24.55;15.00;;;16.70;99.90;;;;;;4979559;28;20455;-85
2022/09/10 06:44:31;;;;;;;19.58;13.52;;;16.60;99.90;;;;;;4979660;28;20061;-84
2022/09/10 06:46:57;;;;;;;21.88;14.05;;;16.60;99.90;;;;;;4989398;28;20029;-85
2022/09/10 06:49:23;;;;;;;26.27;17.65;;;16.60;99.90;;;;;;4982429;28;20118;-85
2022/09/10 06:51:49;;;;;;;23.67;17.00;;;16.60;99.90;;;;;;5013751;28;20395;-85
2022/09/10 06:54:16;;;;;;;30.02;18.05;;;16.60;99.90;;;;;;4998130;28;20030;-84
2022/09/10 06:56:42;;;;;;;31.35;18.65;;;16.60;99.90;;;;;;4997884;28;20088;-85
2022/09/10 06:59:08;;;;;;;26.73;18.90;;;16.60;99.90;;;;;;5015463;28;20030;-85
2022/09/10 07:01:34;;;;;;;27.60;18.02;;;16.60;99.90;;;;;;5014383;28;20027;-85
2022/09/10 07:04:01;;;;;;;30.95;18.70;;;16.60;99.90;;;;;;4982039;28;20122;-85
2022/09/10 07:06:33;;;;;;;31.08;19.23;;;16.60;99.90;;;;;;4998429;28;20053;-85
2022/09/10 07:09:00;;;;;;;26.92;17.58;;;16.60;99.90;;;;;;4999039;28;20525;-86
2022/09/10 07:11:30;;;;;;;26.98;18.10;;;16.60;99.90;;;;;;5014001;28;20029;-86
2022/09/10 07:13:57;;;;;;;24.35;16.83;;;16.60;99.90;;;;;;5012104;28;20049;-86
2022/09/10 07:16:24;;;;;;;27.95;18.73;;;16.60;99.90;;;;;;5012375;28;20045;-84
2022/09/10 07:18:53;;;;;;;31.88;20.25;;;16.60;99.90;;;;;;5015872;28;20479;-84
2022/09/10 07:21:20;;;;;;;33.75;19.95;;;16.60;99.90;;;;;;5014536;28;20057;-85
2022/09/10 07:23:47;;;;;;;34.85;20.63;;;16.70;99.90;;;;;;5015823;28;20550;-84
2022/09/10 07:26:15;;;;;;;34.08;20.23;;;16.70;99.90;;;;;;4997459;28;20028;-85
2022/09/10 07:28:42;;;;;;;36.15;22.33;;;16.70;99.90;;;;;;5014948;28;20022;-85
2022/09/10 07:31:37;;;;;;;26.45;19.52;;;16.70;99.90;;;;;;5002710;28;20030;-83
2022/09/10 07:34:03;;;;;;;30.55;19.63;;;16.70;99.90;;;;;;5018658;28;20103;-85
2022/09/10 07:36:29;;;;;;;31.45;20.00;;;16.70;99.90;;;;;;5019796;28;20034;-83
2022/09/10 07:39:02;;;;;;;33.10;20.70;;;16.70;99.90;;;;;;5013578;28;20034;-84
2022/09/10 07:41:29;;;;;;;31.33;17.75;;;16.70;99.90;;;;;;4998608;28;20133;-83
2022/09/10 07:43:56;;;;;;;32.53;20.67;;;16.70;99.90;;;;;;5002704;28;20037;-84
2022/09/10 07:46:24;;;;;;;30.80;19.83;;;16.80;99.90;;;;;;5002527;28;20037;-84
2022/09/10 07:48:55;;;;;;;34.83;20.67;;;16.80;99.90;;;;;;5001432;28;20022;-84
2022/09/10 07:51:22;;;;;;;30.38;21.73;;;16.80;99.90;;;;;;5016612;28;20029;-84
2022/09/10 07:53:52;;;;;;;28.67;19.88;;;16.80;99.90;;;;;;5000645;28;20526;-84
2022/09/10 07:56:18;;;;;;;34.15;20.40;;;16.80;99.90;;;;;;5018666;28;20057;-86
2022/09/10 07:58:43;;;;;;;36.28;21.23;;;16.80;99.90;;;;;;5000922;28;20036;-83
2022/09/10 08:01:11;;;;;;;32.38;20.60;;;16.80;99.90;;;;;;5018526;28;20026;-83
2022/09/10 08:03:37;;;;;;;31.77;19.38;;;16.90;99.90;;;;;;5016873;28;20475;-83
2022/09/10 08:06:05;;;;;;;28.48;20.13;;;16.90;99.90;;;;;;5016461;28;20030;-83
2022/09/10 08:08:33;;;;;;;27.90;18.02;;;16.90;99.90;;;;;;5001340;28;20034;-82
2022/09/10 08:11:12;;;;;;;27.50;18.65;;;16.90;99.90;;;;;;5016596;28;20030;-84
2022/09/10 08:13:40;;;;;;;25.38;18.13;;;16.90;99.90;;;;;;5016392;28;20022;-85
2022/09/10 08:16:08;;;;;;;30.98;19.80;;;17.00;99.90;;;;;;4984128;28;20040;-85
2022/09/10 08:18:34;;;;;;;27.55;18.42;;;17.00;99.90;;;;;;5018755;28;20028;-85
2022/09/10 08:21:01;;;;;;;29.20;18.02;;;17.00;99.90;;;;;;5000006;28;20032;-84
2022/09/10 08:23:28;;;;;;;28.52;18.98;;;17.00;99.90;;;;;;5015549;28;20022;-85
2022/09/10 08:25:53;;;;;;;24.20;16.80;;;16.90;99.90;;;;;;5015496;28;20017;-86
2022/09/10 08:28:20;;;;;;;28.65;17.83;;;17.00;99.90;;;;;;5000016;28;20026;-87
2022/09/10 08:30:56;;;;;;;31.80;20.20;;;17.00;99.90;;;;;;5000459;28;20022;-88
2022/09/10 08:33:23;;;;;;;23.15;16.92;;;17.00;99.90;;;;;;5000789;28;20030;-87
2022/09/10 08:35:58;;;;;;;29.17;19.58;;;17.00;99.90;;;;;;5000107;28;20093;-88
2022/09/10 08:38:38;;;;;;;23.70;17.83;;;17.10;99.90;;;;;;5016842;28;20041;-88
2022/09/10 08:41:25;;;;;;;21.92;17.92;;;17.10;99.90;;;;;;5016646;28;20046;-88
2022/09/10 08:43:56;;;;;;;24.23;18.00;;;17.10;99.90;;;;;;5013066;28;20030;-88
2022/09/10 08:46:25;;;;;;;20.42;17.40;;;17.10;99.90;;;;;;5017441;28;20029;-87
2022/09/10 08:49:32;;;;;;;22.30;17.33;;;17.20;99.90;;;;;;5016451;28;20391;-87
2022/09/10 08:52:28;;;;;;;28.38;19.77;;;17.20;99.90;;;;;;4993501;28;20038;-86
2022/09/10 08:55:15;;;;;;;17.70;15.77;;;17.20;99.90;;;;;;5016749;28;20034;-86
2022/09/10 08:58:19;;;;;;;21.77;17.13;;;17.20;99.90;;;;;;5017533;28;20483;-87
2022/09/10 09:00:48;;;;;;;26.17;20.60;;;17.30;99.90;;;;;;5002222;28;20125;-84
2022/09/10 09:03:44;;;;;;;23.90;18.65;;;17.30;99.90;;;;;;5020537;28;20525;-86
2022/09/10 09:06:33;;;;;;;27.73;19.23;;;17.30;99.90;;;;;;5013354;28;20484;-87
2022/09/10 09:09:00;;;;;;;24.50;19.80;;;17.30;99.90;;;;;;5021455;28;20029;-87
2022/09/10 09:11:50;;;;;;;29.92;21.23;;;17.30;99.90;;;;;;5003898;28;20030;-87
2022/09/10 09:14:28;;;;;;;27.48;20.77;;;17.40;99.90;;;;;;5020794;28;20081;-85
2022/09/10 09:17:04;;;;;;;31.50;22.80;;;17.40;99.90;;;;;;5004041;28;20046;-85
2022/09/10 09:19:54;;;;;;;31.95;22.50;;;17.40;99.90;;;;;;5020072;28;20022;-85
2022/09/10 09:22:27;;;;;;;30.80;24.15;;;17.40;99.90;;;;;;5003853;28;20472;-85
2022/09/10 09:24:59;;;;;;;33.28;24.10;;;17.40;99.90;;;;;;5020346;28;20026;-86
2022/09/10 09:27:38;;;;;;;33.25;25.58;;;17.50;99.90;;;;;;5020487;28;20088;-85
2022/09/10 09:30:16;;;;;;;33.22;26.10;;;17.50;99.90;;;;;;5019805;28;20018;-85
2022/09/10 09:32:45;;;;;;;35.88;25.70;;;17.50;99.90;;;;;;5021121;28;20061;-86
2022/09/10 09:35:29;;;;;;;33.47;27.98;;;17.60;99.90;;;;;;5021174;28;20037;-85
2022/09/10 09:38:06;;;;;;;33.30;25.58;;;17.60;99.90;;;;;;5020211;28;20026;-87
2022/09/10 09:40:40;;;;;;;35.33;27.67;;;17.70;99.90;;;;;;5003205;28;20096;-87
2022/09/10 09:43:12;;;;;;;34.55;25.83;;;17.70;99.90;;;;;;5020178;28;20037;-85
2022/09/10 09:45:43;;;;;;;31.63;24.58;;;17.80;99.90;;;;;;5002751;28;20030;-85
2022/09/10 09:48:14;;;;;;;27.42;24.42;;;17.80;99.90;;;;;;5018970;28;20073;-85
2022/09/10 09:50:41;;;;;;;;;;;17.80;99.90;;;;;;5017734;28;20018;-85
2022/09/10 09:53:14;;;;;;;26.95;23.27;;;17.80;99.90;;;;;;5000296;28;19905;-85
2022/09/10 09:55:43;;;;;;;34.53;25.58;;;17.80;99.90;;;;;;5017061;28;20033;-85
2022/09/10 09:58:21;;;;;;;27.52;23.55;;;17.80;99.90;;;;;;5017681;28;20038;-85
2022/09/10 10:01:14;;;;;;;34.13;25.23;;;17.80;99.90;;;;;;5001190;28;20036;-85
2022/09/10 10:03:51;;;;;;;27.48;23.15;;;17.90;99.90;;;;;;5017511;28;20034;-86
2022/09/10 10:06:21;;;;;;;26.65;21.92;;;17.90;99.90;;;;;;5000349;28;20026;-86
2022/09/10 10:09:19;;;;;;;26.58;21.63;;;17.90;99.90;;;;;;5017785;28;20022;-86
2022/09/10 10:12:03;;;;;;;21.90;19.38;;;17.90;99.90;;;;;;5000265;28;20311;-86
2022/09/10 10:14:37;;;;;;;21.08;18.88;;;17.90;99.90;;;;;;5017942;28;20029;-86
2022/09/10 10:17:32;;;;;;;19.85;17.80;;;17.90;99.90;;;;;;5016513;28;20026;-84
2022/09/10 10:20:06;;;;;;;20.15;18.05;;;17.90;99.90;;;;;;5016355;28;20026;-86
2022/09/10 10:22:32;;;;;;;23.15;17.20;;;17.90;99.90;;;;;;5017499;28;20029;-86
2022/09/10 10:24:59;;;;;;;20.58;17.48;;;17.90;99.90;;;;;;4999712;28;20026;-86
2022/09/10 10:27:41;;;;;;;17.67;15.10;;;17.90;99.90;;;;;;5015176;28;20022;-86
2022/09/10 10:30:16;;;;;;;14.25;11.98;;;17.90;99.90;;;;;;5000397;28;20129;-86
2022/09/10 10:32:50;;;;;;;13.35;10.73;;;17.90;99.90;;;;;;5000611;28;20026;-87
2022/09/10 10:35:52;;;;;;;10.90;9.43;;;17.90;99.90;;;;;;5017134;28;20044;-87
2022/09/10 10:38:39;;;;;;;12.45;9.63;;;17.90;99.90;;;;;;5000885;28;20064;-89
2022/09/10 10:41:23;;;;;;;12.93;11.15;;;18.00;99.90;;;;;;5016510;28;20048;-88
2022/09/10 10:43:54;;;;;;;14.68;11.52;;;18.00;99.90;;;;;;5001243;28;20081;-88
2022/09/10 10:46:41;;;;;;;15.65;11.10;;;18.00;99.90;;;;;;4996936;28;20030;-89
2022/09/10 10:49:28;;;;;;;13.80;11.05;;;18.10;99.90;;;;;;5010903;28;20029;-88
2022/09/10 10:52:18;;;;;;;12.15;10.25;;;18.10;99.90;;;;;;5015215;28;20057;-91
2022/09/10 10:55:10;;;;;;;13.13;10.07;;;18.10;99.90;;;;;;5014976;28;20026;-90
2022/09/10 10:57:56;;;;;;;13.93;10.98;;;18.10;99.90;;;;;;5019427;28;20021;-90
2022/09/10 11:00:23;;;;;;;16.40;12.38;;;18.20;99.90;;;;;;4997789;28;20030;-89
2022/09/10 11:03:03;;;;;;;15.75;12.05;;;18.20;99.90;;;;;;5000834;28;20030;-88
2022/09/10 11:05:42;;;;;;;18.10;13.25;;;18.30;99.90;;;;;;5018619;28;20018;-89
2022/09/10 11:08:28;;;;;;;19.88;13.20;;;18.30;99.90;;;;;;4997790;28;20014;-89
2022/09/10 11:11:13;;;;;;;17.48;12.93;;;18.30;99.90;;;;;;5002682;28;20025;-89
2022/09/10 11:13:52;;;;;;;16.33;13.50;;;18.30;99.90;;;;;;5018953;28;20029;-89
2022/09/10 11:18:56;;;;;;;20.05;14.40;;;18.30;99.90;;;;;;4998919;28;20058;-90
2022/09/10 11:21:39;;;;;;;15.15;13.23;;;18.40;99.90;;;;;;4998134;28;20030;-91
2022/09/10 11:24:27;;;;;;;14.65;12.73;;;18.40;99.90;;;;;;4997830;28;20030;-90
2022/09/10 11:27:08;;;;;;;17.73;13.68;;;18.40;99.90;;;;;;4997196;28;20041;-90
2022/09/10 11:30:05;;;;;;;;;;;18.40;99.90;;;;;;4997456;28;20058;-91
2022/09/10 11:33:10;;;;;;;16.35;12.13;;;18.40;99.90;;;;;;4988109;28;19912;-91
2022/09/10 11:35:58;;;;;;;16.90;11.55;;;18.40;99.90;;;;;;4980738;28;20022;-90
2022/09/10 11:38:44;;;;;;;17.15;13.77;;;18.40;99.90;;;;;;4995052;28;20037;-90
2022/09/10 11:41:22;;;;;;;16.52;13.63;;;18.40;99.90;;;;;;4995558;28;20038;-91
2022/09/10 11:44:17;;;;;;;18.00;14.05;;;18.40;99.90;;;;;;4994824;28;20034;-90
2022/09/10 11:47:13;;;;;;;16.55;13.25;;;18.50;99.90;;;;;;4995207;28;20026;-89
2022/09/10 11:50:01;;;;;;;;;;;;;;;;;;;;;
2022/09/10 11:52:33;;;;;;;18.25;15.07;;;18.50;99.90;;;;;;4996475;28;20501;-91
2022/09/10 11:55:12;;;;;;;15.88;12.95;;;18.60;99.90;;;;;;4994821;28;20105;-90
2022/09/10 11:58:14;;;;;;;17.73;14.57;;;18.60;99.90;;;;;;4995889;28;20032;-91
2022/09/10 12:01:18;;;;;;;;;;;;;;;;;;;;;
2022/09/10 12:04:02;;;;;;;19.73;16.20;;;18.60;99.90;;;;;;4996579;28;20046;-91
2022/09/10 12:07:05;;;;;;;19.42;15.50;;;18.60;99.90;;;;;;4996947;28;20474;-91
2022/09/10 12:09:56;;;;;;;18.25;15.35;;;18.60;99.90;;;;;;4980063;28;20026;-91
2022/09/10 12:12:38;;;;;;;23.00;17.92;;;18.60;99.90;;;;;;4978460;28;20160;-91
2022/09/10 12:15:29;;;;;;;;;;;;;;;;;;;;;
2022/09/10 12:18:27;;;;;;;15.25;11.82;;;18.70;99.90;;;;;;4995892;28;20056;-91
2022/09/10 12:21:27;;;;;;;10.65;7.38;;;18.70;99.90;;;;;;4978129;28;20029;-90
2022/09/10 12:24:10;;;;;;;7.35;6.40;;;18.80;99.90;;;;;;4976275;28;20034;-91
2022/09/10 12:26:57;;;;;;;6.72;5.60;;;18.80;99.90;;;;;;4995908;28;20038;-90
2022/09/10 12:29:41;;;;;;;6.95;5.63;;;18.90;99.90;;;;;;4997400;28;20030;-90
2022/09/10 12:32:10;;;;;;;7.03;5.70;;;18.90;99.90;;;;;;4979069;28;20026;-90
2022/09/10 12:34:39;;;;;;;6.80;6.07;;;19.00;99.90;;;;;;4995785;28;20022;-91
2022/09/10 12:37:18;;;;;;;7.88;6.57;;;19.10;99.90;;;;;;4994480;28;20030;-91
2022/09/10 12:40:24;;;;;;;6.72;5.75;;;19.10;99.90;;;;;;4994879;28;20089;-90
2022/09/10 12:46:12;;;;;;;6.55;5.78;;;19.10;99.90;;;;;;4982085;28;20030;-90
2022/09/10 12:49:18;;;;;;;6.65;5.75;;;19.20;99.90;;;;;;4978663;28;20038;-90
2022/09/10 12:59:27;;;;;;;6.97;5.40;;;19.30;99.90;;;;;;4955835;28;20064;-91
2022/09/10 13:02:07;;;;;;;9.10;6.50;;;19.30;99.90;;;;;;4928904;28;20047;-90
2022/09/10 13:04:46;;;;;;;11.13;6.05;;;19.30;99.90;;;;;;4979973;28;20038;-91
2022/09/10 13:07:44;;;;;;;8.00;6.05;;;19.30;99.90;;;;;;4979818;28;20449;-91
2022/09/10 13:11:10;;;;;;;;;;;;;;;;;;;;;
2022/09/10 13:13:57;;;;;;;9.23;6.88;;;19.40;99.90;;;;;;4973965;28;20037;-91
2022/09/10 13:19:49;;;;;;;9.52;7.85;;;19.40;99.90;;;;;;4995927;28;20053;-89
2022/09/10 13:22:41;;;;;;;;;;;;;;;;;;;;;